sensor_id;sensor_type;location;lat;lon;timestamp;P1;durP1;ratioP1;P2;durP2;ratioP2
9940;SDS011;5009;50.656;7.188;2022-10-31T00:01:59;11.03;;;6.73;;
9940;SDS011;5009;50.656;7.188;2022-10-31T00:04:24;12.20;;;6.87;;
9940;SDS011;5009;50.656;7.188;2022-10-31T00:06:50;9.13;;;7.10;;
9940;SDS011;5009;50.656;7.188;2022-10-31T00:09:15;12.00;;;7.13;;
9940;SDS011;5009;50.656;7.188;2022-10-31T00:11:41;7.93;;;6.70;;
9940;SDS011;5009;50.656;7.188;2022-10-31T00:14:07;13.20;;;6.60;;
9940;SDS011;5009;50.656;7.188;2022-10-31T00:16:32;9.53;;;6.13;;
9940;SDS011;5009;50.656;7.188;2022-10-31T00:18:59;9.60;;;6.50;;
9940;SDS011;5009;50.656;7.188;2022-10-31T00:21:27;10.20;;;6.50;;
9940;SDS011;5009;50.656;7.188;2022-10-31T00:23:53;9.13;;;6.20;;
9940;SDS011;5009;50.656;7.188;2022-10-31T00:26:19;9.90;;;6.30;;
9940;SDS011;5009;50.656;7.188;2022-10-31T00:28:45;9.93;;;6.70;;
9940;SDS011;5009;50.656;7.188;2022-10-31T00:31:12;11.57;;;6.93;;
9940;SDS011;5009;50.656;7.188;2022-10-31T00:33:38;9.87;;;6.90;;
9940;SDS011;5009;50.656;7.188;2022-10-31T00:36:05;8.60;;;6.40;;
9940;SDS011;5009;50.656;7.188;2022-10-31T00:38:32;10.40;;;6.23;;
9940;SDS011;5009;50.656;7.188;2022-10-31T00:40:58;10.60;;;7.03;;
9940;SDS011;5009;50.656;7.188;2022-10-31T00:43:23;10.17;;;7.27;;
9940;SDS011;5009;50.656;7.188;2022-10-31T00:45:49;14.47;;;7.50;;
9940;SDS011;5009;50.656;7.188;2022-10-31T00:48:15;11.10;;;7.00;;
9940;SDS011;5009;50.656;7.188;2022-10-31T00:50:40;11.27;;;7.73;;
9940;SDS011;5009;50.656;7.188;2022-10-31T00:53:06;16.07;;;7.00;;
9940;SDS011;5009;50.656;7.188;2022-10-31T00:55:32;9.47;;;6.80;;
9940;SDS011;5009;50.656;7.188;2022-10-31T00:57:57;12.13;;;6.77;;
9940;SDS011;5009;50.656;7.188;2022-10-31T01:00:23;9.73;;;6.63;;
9940;SDS011;5009;50.656;7.188;2022-10-31T01:02:49;12.40;;;6.40;;
9940;SDS011;5009;50.656;7.188;2022-10-31T01:05:14;8.33;;;6.87;;
9940;SDS011;5009;50.656;7.188;2022-10-31T01:07:40;7.37;;;5.63;;
9940;SDS011;5009;50.656;7.188;2022-10-31T01:10:06;13.60;;;6.37;;
9940;SDS011;5009;50.656;7.188;2022-10-31T01:12:39;8.03;;;6.03;;
9940;SDS011;5009;50.656;7.188;2022-10-31T01:15:06;13.20;;;6.40;;
9940;SDS011;5009;50.656;7.188;2022-10-31T01:17:32;8.53;;;6.87;;
9940;SDS011;5009;50.656;7.188;2022-10-31T01:19:58;8.70;;;6.93;;
9940;SDS011;5009;50.656;7.188;2022-10-31T01:22:23;8.07;;;6.50;;
9940;SDS011;5009;50.656;7.188;2022-10-31T01:24:49;9.37;;;6.73;;
9940;SDS011;5009;50.656;7.188;2022-10-31T01:27:15;10.03;;;7.20;;
9940;SDS011;5009;50.656;7.188;2022-10-31T01:29:40;11.10;;;6.83;;
9940;SDS011;5009;50.656;7.188;2022-10-31T01:32:06;9.77;;;6.53;;
9940;SDS011;5009;50.656;7.188;2022-10-31T01:34:31;11.40;;;7.07;;
9940;SDS011;5009;50.656;7.188;2022-10-31T01:36:57;13.90;;;6.97;;
9940;SDS011;5009;50.656;7.188;2022-10-31T01:39:22;12.67;;;6.73;;
9940;SDS011;5009;50.656;7.188;2022-10-31T01:41:49;15.73;;;6.07;;
9940;SDS011;5009;50.656;7.188;2022-10-31T01:46:46;9.20;;;6.30;;
9940;SDS011;5009;50.656;7.188;2022-10-31T01:49:21;7.13;;;6.10;;
9940;SDS011;5009;50.656;7.188;2022-10-31T01:52:11;12.40;;;6.93;;
9940;SDS011;5009;50.656;7.188;2022-10-31T01:54:48;11.27;;;7.37;;
9940;SDS011;5009;50.656;7.188;2022-10-31T01:57:21;13.50;;;7.07;;
9940;SDS011;5009;50.656;7.188;2022-10-31T01:59:48;13.70;;;7.93;;
9940;SDS011;5009;50.656;7.188;2022-10-31T02:02:16;11.83;;;7.17;;
9940;SDS011;5009;50.656;7.188;2022-10-31T02:04:43;12.00;;;7.37;;
9940;SDS011;5009;50.656;7.188;2022-10-31T02:07:10;13.27;;;7.33;;
9940;SDS011;5009;50.656;7.188;2022-10-31T02:09:39;10.73;;;7.50;;
9940;SDS011;5009;50.656;7.188;2022-10-31T02:12:05;17.60;;;8.63;;
9940;SDS011;5009;50.656;7.188;2022-10-31T02:14:34;13.07;;;7.50;;
9940;SDS011;5009;50.656;7.188;2022-10-31T02:17:01;13.33;;;7.00;;
9940;SDS011;5009;50.656;7.188;2022-10-31T02:19:35;14.37;;;7.97;;
9940;SDS011;5009;50.656;7.188;2022-10-31T02:22:26;11.97;;;7.30;;
9940;SDS011;5009;50.656;7.188;2022-10-31T02:25:19;16.40;;;8.33;;
9940;SDS011;5009;50.656;7.188;2022-10-31T02:33:53;12.07;;;8.07;;
9940;SDS011;5009;50.656;7.188;2022-10-31T02:36:40;9.97;;;7.93;;
9940;SDS011;5009;50.656;7.188;2022-10-31T02:39:21;12.57;;;7.40;;
9940;SDS011;5009;50.656;7.188;2022-10-31T02:42:02;14.43;;;8.57;;
9940;SDS011;5009;50.656;7.188;2022-10-31T02:44:51;11.90;;;7.67;;
9940;SDS011;5009;50.656;7.188;2022-10-31T02:47:32;14.17;;;8.13;;
9940;SDS011;5009;50.656;7.188;2022-10-31T02:50:12;10.53;;;7.73;;
9940;SDS011;5009;50.656;7.188;2022-10-31T02:52:51;11.60;;;7.93;;
9940;SDS011;5009;50.656;7.188;2022-10-31T02:57:54;11.27;;;7.90;;
9940;SDS011;5009;50.656;7.188;2022-10-31T03:00:24;11.33;;;7.10;;
9940;SDS011;5009;50.656;7.188;2022-10-31T03:03:01;12.90;;;7.73;;
9940;SDS011;5009;50.656;7.188;2022-10-31T03:13:21;12.57;;;8.07;;
9940;SDS011;5009;50.656;7.188;2022-10-31T03:16:13;14.17;;;7.53;;
9940;SDS011;5009;50.656;7.188;2022-10-31T03:18:55;8.90;;;7.17;;
9940;SDS011;5009;50.656;7.188;2022-10-31T03:24:02;11.27;;;8.20;;
9940;SDS011;5009;50.656;7.188;2022-10-31T03:26:31;13.23;;;7.83;;
9940;SDS011;5009;50.656;7.188;2022-10-31T03:29:03;13.07;;;8.13;;
9940;SDS011;5009;50.656;7.188;2022-10-31T03:31:38;14.37;;;8.00;;
9940;SDS011;5009;50.656;7.188;2022-10-31T03:34:14;12.80;;;7.70;;
9940;SDS011;5009;50.656;7.188;2022-10-31T03:36:42;13.17;;;7.47;;
9940;SDS011;5009;50.656;7.188;2022-10-31T03:39:10;14.70;;;8.37;;
9940;SDS011;5009;50.656;7.188;2022-10-31T03:41:40;10.37;;;7.50;;
9940;SDS011;5009;50.656;7.188;2022-10-31T03:44:10;11.67;;;8.03;;
9940;SDS011;5009;50.656;7.188;2022-10-31T03:46:39;11.63;;;7.80;;
9940;SDS011;5009;50.656;7.188;2022-10-31T03:49:05;10.87;;;7.10;;
9940;SDS011;5009;50.656;7.188;2022-10-31T03:51:33;13.47;;;6.70;;
9940;SDS011;5009;50.656;7.188;2022-10-31T03:56:59;11.03;;;6.70;;
9940;SDS011;5009;50.656;7.188;2022-10-31T03:59:27;8.60;;;6.53;;
9940;SDS011;5009;50.656;7.188;2022-10-31T04:02:00;10.93;;;6.43;;
9940;SDS011;5009;50.656;7.188;2022-10-31T04:04:33;7.93;;;5.80;;
9940;SDS011;5009;50.656;7.188;2022-10-31T04:07:00;13.13;;;6.40;;
9940;SDS011;5009;50.656;7.188;2022-10-31T04:09:27;9.37;;;6.53;;
9940;SDS011;5009;50.656;7.188;2022-10-31T04:11:57;13.37;;;6.90;;
9940;SDS011;5009;50.656;7.188;2022-10-31T04:14:26;10.43;;;7.67;;
9940;SDS011;5009;50.656;7.188;2022-10-31T04:16:54;13.90;;;8.07;;
9940;SDS011;5009;50.656;7.188;2022-10-31T04:19:20;11.27;;;7.33;;
9940;SDS011;5009;50.656;7.188;2022-10-31T04:21:46;17.93;;;8.47;;
9940;SDS011;5009;50.656;7.188;2022-10-31T04:24:11;10.17;;;7.53;;
9940;SDS011;5009;50.656;7.188;2022-10-31T04:26:37;12.40;;;8.47;;
9940;SDS011;5009;50.656;7.188;2022-10-31T04:29:02;13.37;;;8.10;;
9940;SDS011;5009;50.656;7.188;2022-10-31T04:31:28;11.37;;;7.40;;
9940;SDS011;5009;50.656;7.188;2022-10-31T04:33:54;15.27;;;7.77;;
9940;SDS011;5009;50.656;7.188;2022-10-31T04:36:20;10.50;;;7.30;;
9940;SDS011;5009;50.656;7.188;2022-10-31T04:38:45;10.57;;;7.77;;
9940;SDS011;5009;50.656;7.188;2022-10-31T04:41:11;12.90;;;8.03;;
9940;SDS011;5009;50.656;7.188;2022-10-31T04:43:36;10.33;;;7.00;;
9940;SDS011;5009;50.656;7.188;2022-10-31T04:46:02;8.57;;;7.40;;
9940;SDS011;5009;50.656;7.188;2022-10-31T04:48:28;9.57;;;6.93;;
9940;SDS011;5009;50.656;7.188;2022-10-31T04:50:58;14.73;;;7.57;;
9940;SDS011;5009;50.656;7.188;2022-10-31T04:53:27;15.23;;;7.83;;
9940;SDS011;5009;50.656;7.188;2022-10-31T04:55:53;12.23;;;7.93;;
9940;SDS011;5009;50.656;7.188;2022-10-31T04:58:19;14.63;;;8.30;;
9940;SDS011;5009;50.656;7.188;2022-10-31T05:00:44;15.00;;;8.33;;
9940;SDS011;5009;50.656;7.188;2022-10-31T05:03:10;18.23;;;8.73;;
9940;SDS011;5009;50.656;7.188;2022-10-31T05:05:35;15.57;;;9.40;;
9940;SDS011;5009;50.656;7.188;2022-10-31T05:08:01;14.03;;;8.97;;
9940;SDS011;5009;50.656;7.188;2022-10-31T05:10:28;12.20;;;8.07;;
9940;SDS011;5009;50.656;7.188;2022-10-31T05:12:55;12.87;;;8.07;;
9940;SDS011;5009;50.656;7.188;2022-10-31T05:15:23;14.63;;;8.20;;
9940;SDS011;5009;50.656;7.188;2022-10-31T05:17:50;16.20;;;8.77;;
9940;SDS011;5009;50.656;7.188;2022-10-31T05:20:17;10.83;;;7.70;;
9940;SDS011;5009;50.656;7.188;2022-10-31T05:22:46;13.20;;;8.50;;
9940;SDS011;5009;50.656;7.188;2022-10-31T05:25:13;9.60;;;7.80;;
9940;SDS011;5009;50.656;7.188;2022-10-31T05:27:40;12.73;;;8.87;;
9940;SDS011;5009;50.656;7.188;2022-10-31T05:30:07;12.03;;;8.30;;
9940;SDS011;5009;50.656;7.188;2022-10-31T05:32:38;11.83;;;8.10;;
9940;SDS011;5009;50.656;7.188;2022-10-31T05:35:04;10.80;;;7.27;;
9940;SDS011;5009;50.656;7.188;2022-10-31T05:37:33;14.87;;;8.30;;
9940;SDS011;5009;50.656;7.188;2022-10-31T05:39:59;13.40;;;7.33;;
9940;SDS011;5009;50.656;7.188;2022-10-31T05:42:24;13.07;;;8.43;;
9940;SDS011;5009;50.656;7.188;2022-10-31T05:44:50;12.07;;;8.97;;
9940;SDS011;5009;50.656;7.188;2022-10-31T05:47:15;14.33;;;9.70;;
9940;SDS011;5009;50.656;7.188;2022-10-31T05:49:41;13.63;;;9.50;;
9940;SDS011;5009;50.656;7.188;2022-10-31T05:52:07;13.63;;;9.63;;
9940;SDS011;5009;50.656;7.188;2022-10-31T05:54:32;11.97;;;9.10;;
9940;SDS011;5009;50.656;7.188;2022-10-31T05:56:58;14.47;;;9.63;;
9940;SDS011;5009;50.656;7.188;2022-10-31T05:59:23;15.73;;;9.47;;
9940;SDS011;5009;50.656;7.188;2022-10-31T06:01:49;15.37;;;9.57;;
9940;SDS011;5009;50.656;7.188;2022-10-31T06:04:14;14.30;;;9.80;;
9940;SDS011;5009;50.656;7.188;2022-10-31T06:06:40;13.80;;;10.30;;
9940;SDS011;5009;50.656;7.188;2022-10-31T06:09:05;14.97;;;10.23;;
9940;SDS011;5009;50.656;7.188;2022-10-31T06:11:31;20.67;;;9.83;;
9940;SDS011;5009;50.656;7.188;2022-10-31T06:13:56;15.30;;;9.17;;
9940;SDS011;5009;50.656;7.188;2022-10-31T06:16:22;17.90;;;10.50;;
9940;SDS011;5009;50.656;7.188;2022-10-31T06:18:47;16.43;;;9.73;;
9940;SDS011;5009;50.656;7.188;2022-10-31T06:21:13;11.53;;;9.07;;
9940;SDS011;5009;50.656;7.188;2022-10-31T06:23:38;12.43;;;9.37;;
9940;SDS011;5009;50.656;7.188;2022-10-31T06:26:04;14.57;;;9.10;;
9940;SDS011;5009;50.656;7.188;2022-10-31T06:28:29;15.77;;;9.93;;
9940;SDS011;5009;50.656;7.188;2022-10-31T06:30:55;14.20;;;9.47;;
9940;SDS011;5009;50.656;7.188;2022-10-31T06:33:20;16.13;;;9.80;;
9940;SDS011;5009;50.656;7.188;2022-10-31T06:35:46;21.13;;;10.67;;
9940;SDS011;5009;50.656;7.188;2022-10-31T06:38:12;16.07;;;10.97;;
9940;SDS011;5009;50.656;7.188;2022-10-31T06:40:38;15.17;;;10.10;;
9940;SDS011;5009;50.656;7.188;2022-10-31T06:43:04;18.57;;;11.17;;
9940;SDS011;5009;50.656;7.188;2022-10-31T06:45:29;14.33;;;10.97;;
9940;SDS011;5009;50.656;7.188;2022-10-31T06:47:55;15.40;;;11.57;;
9940;SDS011;5009;50.656;7.188;2022-10-31T06:50:22;20.13;;;11.57;;
9940;SDS011;5009;50.656;7.188;2022-10-31T06:52:54;15.67;;;11.17;;
9940;SDS011;5009;50.656;7.188;2022-10-31T06:55:21;18.37;;;11.13;;
9940;SDS011;5009;50.656;7.188;2022-10-31T06:58:00;19.47;;;12.67;;
9940;SDS011;5009;50.656;7.188;2022-10-31T07:00:26;15.33;;;12.03;;
9940;SDS011;5009;50.656;7.188;2022-10-31T07:02:54;21.80;;;14.40;;
9940;SDS011;5009;50.656;7.188;2022-10-31T07:05:27;18.90;;;13.33;;
9940;SDS011;5009;50.656;7.188;2022-10-31T07:07:54;19.87;;;14.20;;
9940;SDS011;5009;50.656;7.188;2022-10-31T07:10:21;21.20;;;14.97;;
9940;SDS011;5009;50.656;7.188;2022-10-31T07:12:47;21.30;;;14.80;;
9940;SDS011;5009;50.656;7.188;2022-10-31T07:15:13;22.53;;;14.87;;
9940;SDS011;5009;50.656;7.188;2022-10-31T07:17:38;20.23;;;14.60;;
9940;SDS011;5009;50.656;7.188;2022-10-31T07:20:04;22.23;;;13.83;;
9940;SDS011;5009;50.656;7.188;2022-10-31T07:22:34;18.73;;;13.80;;
9940;SDS011;5009;50.656;7.188;2022-10-31T07:25:00;21.77;;;13.80;;
9940;SDS011;5009;50.656;7.188;2022-10-31T07:27:25;21.77;;;15.00;;
9940;SDS011;5009;50.656;7.188;2022-10-31T07:29:51;19.20;;;13.87;;
9940;SDS011;5009;50.656;7.188;2022-10-31T07:32:16;18.27;;;14.03;;
9940;SDS011;5009;50.656;7.188;2022-10-31T07:34:42;20.10;;;14.60;;
9940;SDS011;5009;50.656;7.188;2022-10-31T07:37:07;20.03;;;15.20;;
9940;SDS011;5009;50.656;7.188;2022-10-31T07:39:33;26.67;;;16.40;;
9940;SDS011;5009;50.656;7.188;2022-10-31T07:41:58;23.23;;;14.97;;
9940;SDS011;5009;50.656;7.188;2022-10-31T07:44:24;26.50;;;15.77;;
9940;SDS011;5009;50.656;7.188;2022-10-31T07:46:50;22.40;;;15.00;;
9940;SDS011;5009;50.656;7.188;2022-10-31T07:49:15;22.93;;;14.60;;
9940;SDS011;5009;50.656;7.188;2022-10-31T07:51:41;22.80;;;15.00;;
9940;SDS011;5009;50.656;7.188;2022-10-31T07:54:06;23.97;;;15.33;;
9940;SDS011;5009;50.656;7.188;2022-10-31T07:56:32;19.80;;;14.30;;
9940;SDS011;5009;50.656;7.188;2022-10-31T07:58:57;18.97;;;14.73;;
9940;SDS011;5009;50.656;7.188;2022-10-31T08:01:23;24.60;;;15.90;;
9940;SDS011;5009;50.656;7.188;2022-10-31T08:03:48;22.43;;;16.10;;
9940;SDS011;5009;50.656;7.188;2022-10-31T08:06:14;21.33;;;16.43;;
9940;SDS011;5009;50.656;7.188;2022-10-31T08:08:39;19.90;;;15.30;;
9940;SDS011;5009;50.656;7.188;2022-10-31T08:11:05;20.90;;;16.20;;
9940;SDS011;5009;50.656;7.188;2022-10-31T08:13:31;24.00;;;15.97;;
9940;SDS011;5009;50.656;7.188;2022-10-31T08:15:57;23.53;;;15.50;;
9940;SDS011;5009;50.656;7.188;2022-10-31T08:18:28;21.77;;;15.13;;
9940;SDS011;5009;50.656;7.188;2022-10-31T08:20:54;22.57;;;15.83;;
9940;SDS011;5009;50.656;7.188;2022-10-31T08:23:19;23.03;;;15.97;;
9940;SDS011;5009;50.656;7.188;2022-10-31T08:25:45;18.10;;;14.30;;
9940;SDS011;5009;50.656;7.188;2022-10-31T08:28:12;20.67;;;16.10;;
9940;SDS011;5009;50.656;7.188;2022-10-31T08:30:39;19.53;;;15.10;;
9940;SDS011;5009;50.656;7.188;2022-10-31T08:33:08;25.63;;;16.10;;
9940;SDS011;5009;50.656;7.188;2022-10-31T08:35:38;24.37;;;16.73;;
9940;SDS011;5009;50.656;7.188;2022-10-31T08:38:05;30.53;;;17.43;;
9940;SDS011;5009;50.656;7.188;2022-10-31T08:40:33;23.30;;;17.40;;
9940;SDS011;5009;50.656;7.188;2022-10-31T08:45:27;29.10;;;16.80;;
9940;SDS011;5009;50.656;7.188;2022-10-31T08:48:00;23.63;;;17.07;;
9940;SDS011;5009;50.656;7.188;2022-10-31T08:50:29;24.83;;;16.33;;
9940;SDS011;5009;50.656;7.188;2022-10-31T08:53:11;26.23;;;16.17;;
9940;SDS011;5009;50.656;7.188;2022-10-31T08:55:42;23.73;;;16.83;;
9940;SDS011;5009;50.656;7.188;2022-10-31T08:58:12;24.53;;;17.27;;
9940;SDS011;5009;50.656;7.188;2022-10-31T09:00:39;25.27;;;18.07;;
9940;SDS011;5009;50.656;7.188;2022-10-31T09:03:06;30.13;;;19.50;;
9940;SDS011;5009;50.656;7.188;2022-10-31T09:05:36;25.33;;;18.23;;
9940;SDS011;5009;50.656;7.188;2022-10-31T09:08:03;24.77;;;17.97;;
9940;SDS011;5009;50.656;7.188;2022-10-31T09:10:31;25.13;;;18.50;;
9940;SDS011;5009;50.656;7.188;2022-10-31T09:12:58;28.57;;;18.83;;
9940;SDS011;5009;50.656;7.188;2022-10-31T09:15:33;26.83;;;18.27;;
9940;SDS011;5009;50.656;7.188;2022-10-31T09:18:00;23.03;;;18.30;;
9940;SDS011;5009;50.656;7.188;2022-10-31T09:20:26;24.77;;;17.77;;
9940;SDS011;5009;50.656;7.188;2022-10-31T09:22:56;24.00;;;19.13;;
9940;SDS011;5009;50.656;7.188;2022-10-31T09:25:27;23.63;;;16.57;;
9940;SDS011;5009;50.656;7.188;2022-10-31T09:27:55;21.90;;;17.57;;
9940;SDS011;5009;50.656;7.188;2022-10-31T09:30:22;24.50;;;17.60;;
9940;SDS011;5009;50.656;7.188;2022-10-31T09:32:48;23.30;;;17.40;;
9940;SDS011;5009;50.656;7.188;2022-10-31T09:35:23;25.37;;;17.77;;
9940;SDS011;5009;50.656;7.188;2022-10-31T09:37:59;20.37;;;16.50;;
9940;SDS011;5009;50.656;7.188;2022-10-31T09:40:38;21.87;;;16.47;;
9940;SDS011;5009;50.656;7.188;2022-10-31T09:45:58;21.60;;;15.37;;
9940;SDS011;5009;50.656;7.188;2022-10-31T09:54:04;20.20;;;14.60;;
9940;SDS011;5009;50.656;7.188;2022-10-31T09:56:37;22.03;;;14.47;;
9940;SDS011;5009;50.656;7.188;2022-10-31T09:59:04;20.00;;;13.53;;
9940;SDS011;5009;50.656;7.188;2022-10-31T10:06:45;13.97;;;12.47;;
9940;SDS011;5009;50.656;7.188;2022-10-31T10:09:14;15.07;;;12.00;;
9940;SDS011;5009;50.656;7.188;2022-10-31T10:11:47;15.83;;;11.57;;
9940;SDS011;5009;50.656;7.188;2022-10-31T10:17:24;13.93;;;10.43;;
9940;SDS011;5009;50.656;7.188;2022-10-31T10:20:18;12.07;;;10.13;;
9940;SDS011;5009;50.656;7.188;2022-10-31T10:26:01;13.30;;;9.83;;
9940;SDS011;5009;50.656;7.188;2022-10-31T10:28:48;15.10;;;9.77;;
9940;SDS011;5009;50.656;7.188;2022-10-31T10:31:20;12.47;;;9.97;;
9940;SDS011;5009;50.656;7.188;2022-10-31T10:34:07;10.68;;;8.90;;
9940;SDS011;5009;50.656;7.188;2022-10-31T10:36:44;11.85;;;8.05;;
9940;SDS011;5009;50.656;7.188;2022-10-31T10:39:23;11.20;;;8.43;;
9940;SDS011;5009;50.656;7.188;2022-10-31T10:42:00;10.57;;;8.45;;
9940;SDS011;5009;50.656;7.188;2022-10-31T10:44:50;9.70;;;7.97;;
9940;SDS011;5009;50.656;7.188;2022-10-31T10:47:44;11.55;;;7.47;;
9940;SDS011;5009;50.656;7.188;2022-10-31T10:50:27;11.23;;;8.23;;
9940;SDS011;5009;50.656;7.188;2022-10-31T10:58:55;9.85;;;7.30;;
9940;SDS011;5009;50.656;7.188;2022-10-31T11:01:22;7.90;;;6.50;;
9940;SDS011;5009;50.656;7.188;2022-10-31T11:03:48;8.18;;;6.65;;
9940;SDS011;5009;50.656;7.188;2022-10-31T11:06:18;8.90;;;6.68;;
9940;SDS011;5009;50.656;7.188;2022-10-31T11:08:47;11.43;;;6.80;;
9940;SDS011;5009;50.656;7.188;2022-10-31T11:13:43;9.70;;;7.45;;
9940;SDS011;5009;50.656;7.188;2022-10-31T11:16:11;11.95;;;7.20;;
9940;SDS011;5009;50.656;7.188;2022-10-31T11:18:52;11.00;;;7.03;;
9940;SDS011;5009;50.656;7.188;2022-10-31T11:21:22;10.43;;;7.07;;
9940;SDS011;5009;50.656;7.188;2022-10-31T11:26:35;9.80;;;6.65;;
9940;SDS011;5009;50.656;7.188;2022-10-31T11:29:03;10.70;;;6.63;;
9940;SDS011;5009;50.656;7.188;2022-10-31T11:31:29;13.98;;;7.22;;
9940;SDS011;5009;50.656;7.188;2022-10-31T11:34:05;8.70;;;6.70;;
9940;SDS011;5009;50.656;7.188;2022-10-31T11:36:39;11.63;;;6.72;;
9940;SDS011;5009;50.656;7.188;2022-10-31T11:39:13;8.55;;;6.68;;
9940;SDS011;5009;50.656;7.188;2022-10-31T11:41:46;13.75;;;6.75;;
9940;SDS011;5009;50.656;7.188;2022-10-31T11:44:19;11.90;;;6.75;;
9940;SDS011;5009;50.656;7.188;2022-10-31T11:46:49;10.75;;;6.57;;
9940;SDS011;5009;50.656;7.188;2022-10-31T11:49:22;8.38;;;6.20;;
9940;SDS011;5009;50.656;7.188;2022-10-31T11:51:56;9.38;;;6.22;;
9940;SDS011;5009;50.656;7.188;2022-10-31T11:54:26;9.02;;;6.28;;
9940;SDS011;5009;50.656;7.188;2022-10-31T11:56:58;10.52;;;6.20;;
9940;SDS011;5009;50.656;7.188;2022-10-31T11:59:27;10.23;;;6.05;;
9940;SDS011;5009;50.656;7.188;2022-10-31T12:01:55;10.50;;;5.70;;
9940;SDS011;5009;50.656;7.188;2022-10-31T12:04:26;7.95;;;5.85;;
9940;SDS011;5009;50.656;7.188;2022-10-31T12:07:13;8.30;;;5.88;;
9940;SDS011;5009;50.656;7.188;2022-10-31T12:09:38;9.50;;;6.38;;
9940;SDS011;5009;50.656;7.188;2022-10-31T12:20:25;9.15;;;5.28;;
9940;SDS011;5009;50.656;7.188;2022-10-31T12:37:04;12.63;;;6.47;;
9940;SDS011;5009;50.656;7.188;2022-10-31T12:39:52;9.45;;;6.07;;
9940;SDS011;5009;50.656;7.188;2022-10-31T12:51:06;11.95;;;6.13;;
9940;SDS011;5009;50.656;7.188;2022-10-31T12:59:01;9.63;;;6.15;;
9940;SDS011;5009;50.656;7.188;2022-10-31T13:01:47;14.63;;;6.40;;
9940;SDS011;5009;50.656;7.188;2022-10-31T13:04:33;9.63;;;6.20;;
9940;SDS011;5009;50.656;7.188;2022-10-31T13:07:01;12.75;;;5.78;;
9940;SDS011;5009;50.656;7.188;2022-10-31T13:12:34;11.95;;;5.72;;
9940;SDS011;5009;50.656;7.188;2022-10-31T13:15:12;9.65;;;5.88;;
9940;SDS011;5009;50.656;7.188;2022-10-31T13:17:44;8.43;;;5.68;;
9940;SDS011;5009;50.656;7.188;2022-10-31T13:20:17;7.63;;;5.30;;
9940;SDS011;5009;50.656;7.188;2022-10-31T13:22:45;8.05;;;5.22;;
9940;SDS011;5009;50.656;7.188;2022-10-31T13:27:46;11.38;;;5.70;;
9940;SDS011;5009;50.656;7.188;2022-10-31T13:30:22;11.50;;;5.40;;
9940;SDS011;5009;50.656;7.188;2022-10-31T13:46:40;10.68;;;5.90;;
9940;SDS011;5009;50.656;7.188;2022-10-31T13:54:46;10.68;;;5.70;;
9940;SDS011;5009;50.656;7.188;2022-10-31T13:59:56;12.05;;;5.55;;
9940;SDS011;5009;50.656;7.188;2022-10-31T14:02:29;10.75;;;5.60;;
9940;SDS011;5009;50.656;7.188;2022-10-31T14:04:58;11.05;;;5.45;;
9940;SDS011;5009;50.656;7.188;2022-10-31T14:07:27;11.45;;;5.72;;
9940;SDS011;5009;50.656;7.188;2022-10-31T14:10:04;7.13;;;4.90;;
9940;SDS011;5009;50.656;7.188;2022-10-31T14:12:40;10.38;;;5.85;;
9940;SDS011;5009;50.656;7.188;2022-10-31T14:17:53;12.50;;;5.35;;
9940;SDS011;5009;50.656;7.188;2022-10-31T14:22:47;7.07;;;4.90;;
9940;SDS011;5009;50.656;7.188;2022-10-31T14:27:58;10.75;;;5.68;;
9940;SDS011;5009;50.656;7.188;2022-10-31T14:30:26;12.35;;;5.85;;
9940;SDS011;5009;50.656;7.188;2022-10-31T14:32:57;9.23;;;5.78;;
9940;SDS011;5009;50.656;7.188;2022-10-31T14:35:27;9.13;;;5.28;;
9940;SDS011;5009;50.656;7.188;2022-10-31T14:38:05;9.70;;;5.53;;
9940;SDS011;5009;50.656;7.188;2022-10-31T14:40:56;11.05;;;5.80;;
9940;SDS011;5009;50.656;7.188;2022-10-31T14:43:48;12.40;;;5.80;;
9940;SDS011;5009;50.656;7.188;2022-10-31T14:46:35;11.98;;;5.72;;
9940;SDS011;5009;50.656;7.188;2022-10-31T14:49:21;10.35;;;5.78;;
9940;SDS011;5009;50.656;7.188;2022-10-31T14:51:54;9.90;;;5.35;;
9940;SDS011;5009;50.656;7.188;2022-10-31T14:54:25;9.07;;;5.40;;
9940;SDS011;5009;50.656;7.188;2022-10-31T14:56:56;13.52;;;5.78;;
9940;SDS011;5009;50.656;7.188;2022-10-31T14:59:28;9.13;;;5.20;;
9940;SDS011;5009;50.656;7.188;2022-10-31T15:02:07;10.57;;;5.43;;
9940;SDS011;5009;50.656;7.188;2022-10-31T15:04:49;10.88;;;5.43;;
9940;SDS011;5009;50.656;7.188;2022-10-31T15:07:18;8.18;;;5.03;;
9940;SDS011;5009;50.656;7.188;2022-10-31T15:09:58;15.85;;;5.75;;
9940;SDS011;5009;50.656;7.188;2022-10-31T15:12:43;11.38;;;5.55;;
9940;SDS011;5009;50.656;7.188;2022-10-31T15:15:18;8.07;;;5.32;;
9940;SDS011;5009;50.656;7.188;2022-10-31T15:17:48;8.48;;;5.03;;
9940;SDS011;5009;50.656;7.188;2022-10-31T15:20:18;6.72;;;5.20;;
9940;SDS011;5009;50.656;7.188;2022-10-31T15:22:46;12.63;;;5.57;;
9940;SDS011;5009;50.656;7.188;2022-10-31T15:25:17;10.43;;;5.50;;
9940;SDS011;5009;50.656;7.188;2022-10-31T15:27:44;10.38;;;5.45;;
9940;SDS011;5009;50.656;7.188;2022-10-31T15:32:47;9.52;;;5.68;;
9940;SDS011;5009;50.656;7.188;2022-10-31T15:37:47;10.80;;;5.63;;
9940;SDS011;5009;50.656;7.188;2022-10-31T15:40:14;8.57;;;4.82;;
9940;SDS011;5009;50.656;7.188;2022-10-31T15:42:43;8.77;;;5.13;;
9940;SDS011;5009;50.656;7.188;2022-10-31T15:47:37;10.50;;;5.43;;
9940;SDS011;5009;50.656;7.188;2022-10-31T15:53:06;13.50;;;5.32;;
9940;SDS011;5009;50.656;7.188;2022-10-31T15:58:44;8.57;;;5.30;;
9940;SDS011;5009;50.656;7.188;2022-10-31T16:01:26;8.95;;;5.22;;
9940;SDS011;5009;50.656;7.188;2022-10-31T16:06:28;11.45;;;5.53;;
9940;SDS011;5009;50.656;7.188;2022-10-31T16:08:55;7.50;;;5.10;;
9940;SDS011;5009;50.656;7.188;2022-10-31T16:11:34;10.23;;;5.32;;
9940;SDS011;5009;50.656;7.188;2022-10-31T16:16:42;14.63;;;5.10;;
9940;SDS011;5009;50.656;7.188;2022-10-31T16:19:17;12.23;;;5.13;;
9940;SDS011;5009;50.656;7.188;2022-10-31T16:21:46;9.65;;;4.65;;
9940;SDS011;5009;50.656;7.188;2022-10-31T16:27:19;8.95;;;4.85;;
9940;SDS011;5009;50.656;7.188;2022-10-31T16:29:51;9.95;;;5.05;;
9940;SDS011;5009;50.656;7.188;2022-10-31T16:35:01;12.25;;;5.60;;
9940;SDS011;5009;50.656;7.188;2022-10-31T16:37:32;9.23;;;5.38;;
9940;SDS011;5009;50.656;7.188;2022-10-31T16:39:58;6.57;;;4.82;;
9940;SDS011;5009;50.656;7.188;2022-10-31T16:42:24;12.63;;;5.65;;
9940;SDS011;5009;50.656;7.188;2022-10-31T16:44:49;11.43;;;5.38;;
9940;SDS011;5009;50.656;7.188;2022-10-31T16:47:16;10.65;;;5.30;;
9940;SDS011;5009;50.656;7.188;2022-10-31T16:49:42;9.13;;;5.40;;
9940;SDS011;5009;50.656;7.188;2022-10-31T16:52:11;13.90;;;5.47;;
9940;SDS011;5009;50.656;7.188;2022-10-31T16:54:36;11.73;;;5.03;;
9940;SDS011;5009;50.656;7.188;2022-10-31T16:57:02;10.20;;;5.45;;
9940;SDS011;5009;50.656;7.188;2022-10-31T16:59:29;6.40;;;4.88;;
9940;SDS011;5009;50.656;7.188;2022-10-31T17:01:55;9.55;;;4.65;;
9940;SDS011;5009;50.656;7.188;2022-10-31T17:04:21;9.48;;;5.82;;
9940;SDS011;5009;50.656;7.188;2022-10-31T17:06:47;10.13;;;5.35;;
9940;SDS011;5009;50.656;7.188;2022-10-31T17:09:12;13.32;;;5.72;;
9940;SDS011;5009;50.656;7.188;2022-10-31T17:11:39;9.02;;;5.22;;
9940;SDS011;5009;50.656;7.188;2022-10-31T17:14:11;9.90;;;5.05;;
9940;SDS011;5009;50.656;7.188;2022-10-31T17:16:37;10.95;;;5.50;;
9940;SDS011;5009;50.656;7.188;2022-10-31T17:19:03;9.00;;;5.63;;
9940;SDS011;5009;50.656;7.188;2022-10-31T17:21:28;10.73;;;5.50;;
9940;SDS011;5009;50.656;7.188;2022-10-31T17:23:54;8.90;;;5.25;;
9940;SDS011;5009;50.656;7.188;2022-10-31T17:26:20;9.35;;;5.55;;
9940;SDS011;5009;50.656;7.188;2022-10-31T17:28:47;10.10;;;5.85;;
9940;SDS011;5009;50.656;7.188;2022-10-31T17:31:20;10.02;;;5.45;;
9940;SDS011;5009;50.656;7.188;2022-10-31T17:33:48;16.13;;;6.50;;
9940;SDS011;5009;50.656;7.188;2022-10-31T17:36:14;10.60;;;5.50;;
9940;SDS011;5009;50.656;7.188;2022-10-31T17:38:40;11.15;;;5.72;;
9940;SDS011;5009;50.656;7.188;2022-10-31T17:41:06;11.70;;;5.63;;
9940;SDS011;5009;50.656;7.188;2022-10-31T17:43:32;9.13;;;5.60;;
9940;SDS011;5009;50.656;7.188;2022-10-31T17:45:58;10.35;;;5.90;;
9940;SDS011;5009;50.656;7.188;2022-10-31T17:48:25;9.02;;;5.97;;
9940;SDS011;5009;50.656;7.188;2022-10-31T17:50:51;12.07;;;6.53;;